sensor_id;sensor_type;location;lat;lon;timestamp;P1;durP1;ratioP1;P2;durP2;ratioP2
41167;SDS011;26906;45.658;9.272;2022-11-14T06:37:35;50.10;;;35.97;;
41167;SDS011;26906;45.658;9.272;2022-11-14T06:40:23;49.65;;;36.22;;
41167;SDS011;26906;45.658;9.272;2022-11-14T06:43:08;53.17;;;36.95;;
41167;SDS011;26906;45.658;9.272;2022-11-14T06:45:56;48.67;;;36.05;;
41167;SDS011;26906;45.658;9.272;2022-11-14T06:48:40;51.20;;;36.70;;
41167;SDS011;26906;45.658;9.272;2022-11-14T06:51:25;45.88;;;35.28;;
41167;SDS011;26906;45.658;9.272;2022-11-14T06:54:10;48.20;;;34.38;;
41167;SDS011;26906;45.658;9.272;2022-11-14T06:56:54;48.72;;;35.17;;
41167;SDS011;26906;45.658;9.272;2022-11-14T06:59:38;45.90;;;33.70;;
41167;SDS011;26906;45.658;9.272;2022-11-14T07:02:25;44.63;;;33.15;;
41167;SDS011;26906;45.658;9.272;2022-11-14T07:07:55;43.95;;;31.45;;
41167;SDS011;26906;45.658;9.272;2022-11-14T07:10:40;46.53;;;33.33;;
41167;SDS011;26906;45.658;9.272;2022-11-14T07:13:24;43.10;;;31.75;;
41167;SDS011;26906;45.658;9.272;2022-11-14T07:16:09;41.65;;;32.33;;
41167;SDS011;26906;45.658;9.272;2022-11-14T07:27:07;42.13;;;29.92;;
41167;SDS011;26906;45.658;9.272;2022-11-14T07:29:53;41.67;;;30.70;;
41167;SDS011;26906;45.658;9.272;2022-11-14T07:32:37;43.97;;;33.10;;
41167;SDS011;26906;45.658;9.272;2022-11-14T07:35:21;42.60;;;32.40;;
41167;SDS011;26906;45.658;9.272;2022-11-14T07:38:06;45.38;;;34.22;;
41167;SDS011;26906;45.658;9.272;2022-11-14T07:43:45;42.35;;;30.00;;
41167;SDS011;26906;45.658;9.272;2022-11-14T07:46:29;39.75;;;30.25;;
41167;SDS011;26906;45.658;9.272;2022-11-14T07:49:14;39.47;;;29.35;;
41167;SDS011;26906;45.658;9.272;2022-11-14T07:54:42;37.55;;;28.50;;
41167;SDS011;26906;45.658;9.272;2022-11-14T07:57:26;39.10;;;28.38;;
41167;SDS011;26906;45.658;9.272;2022-11-14T08:00:10;35.63;;;28.23;;
41167;SDS011;26906;45.658;9.272;2022-11-14T08:02:56;34.95;;;27.48;;
41167;SDS011;26906;45.658;9.272;2022-11-14T08:11:09;39.38;;;28.92;;
41167;SDS011;26906;45.658;9.272;2022-11-14T08:13:54;44.85;;;29.00;;
41167;SDS011;26906;45.658;9.272;2022-11-14T08:16:37;38.80;;;29.27;;
41167;SDS011;26906;45.658;9.272;2022-11-14T08:22:06;36.25;;;28.05;;
41167;SDS011;26906;45.658;9.272;2022-11-14T08:24:50;40.47;;;31.02;;
41167;SDS011;26906;45.658;9.272;2022-11-14T08:27:34;36.20;;;28.42;;
41167;SDS011;26906;45.658;9.272;2022-11-14T08:30:18;42.58;;;30.83;;
41167;SDS011;26906;45.658;9.272;2022-11-14T08:33:06;35.17;;;28.67;;
41167;SDS011;26906;45.658;9.272;2022-11-14T08:35:50;33.72;;;27.23;;
41167;SDS011;26906;45.658;9.272;2022-11-14T08:41:18;35.35;;;25.92;;
41167;SDS011;26906;45.658;9.272;2022-11-14T08:44:02;32.28;;;26.60;;
41167;SDS011;26906;45.658;9.272;2022-11-14T08:46:46;35.25;;;26.58;;
41167;SDS011;26906;45.658;9.272;2022-11-14T08:49:30;33.70;;;26.35;;
41167;SDS011;26906;45.658;9.272;2022-11-14T08:54:59;33.45;;;25.95;;
41167;SDS011;26906;45.658;9.272;2022-11-14T08:57:43;31.50;;;25.70;;
41167;SDS011;26906;45.658;9.272;2022-11-14T09:00:27;35.83;;;28.48;;
41167;SDS011;26906;45.658;9.272;2022-11-14T09:05:57;38.13;;;26.55;;
41167;SDS011;26906;45.658;9.272;2022-11-14T09:08:42;37.58;;;29.38;;
41167;SDS011;26906;45.658;9.272;2022-11-14T09:11:26;36.28;;;28.35;;
41167;SDS011;26906;45.658;9.272;2022-11-14T09:16:54;36.47;;;26.67;;
41167;SDS011;26906;45.658;9.272;2022-11-14T09:19:38;34.72;;;27.85;;
41167;SDS011;26906;45.658;9.272;2022-11-14T09:22:23;36.50;;;27.05;;
41167;SDS011;26906;45.658;9.272;2022-11-14T09:25:07;33.50;;;27.00;;
41167;SDS011;26906;45.658;9.272;2022-11-14T09:27:52;31.70;;;24.40;;
41167;SDS011;26906;45.658;9.272;2022-11-14T09:30:36;30.38;;;24.85;;
41167;SDS011;26906;45.658;9.272;2022-11-14T09:33:20;30.83;;;25.00;;
41167;SDS011;26906;45.658;9.272;2022-11-14T09:36:05;30.75;;;24.20;;
41167;SDS011;26906;45.658;9.272;2022-11-14T09:38:51;30.73;;;24.35;;
41167;SDS011;26906;45.658;9.272;2022-11-14T09:41:47;31.05;;;24.17;;
41167;SDS011;26906;45.658;9.272;2022-11-14T09:47:49;32.10;;;24.67;;
41167;SDS011;26906;45.658;9.272;2022-11-14T09:50:37;34.90;;;25.98;;
41167;SDS011;26906;45.658;9.272;2022-11-14T09:53:39;29.48;;;24.77;;
41167;SDS011;26906;45.658;9.272;2022-11-14T09:56:30;27.45;;;23.27;;
41167;SDS011;26906;45.658;9.272;2022-11-14T10:02:12;27.23;;;22.65;;
41167;SDS011;26906;45.658;9.272;2022-11-14T10:11:28;27.75;;;22.73;;
41167;SDS011;26906;45.658;9.272;2022-11-14T10:14:39;27.33;;;23.10;;
41167;SDS011;26906;45.658;9.272;2022-11-14T10:17:46;26.02;;;21.15;;
41167;SDS011;26906;45.658;9.272;2022-11-14T10:21:20;26.88;;;21.48;;
41167;SDS011;26906;45.658;9.272;2022-11-14T10:24:37;22.00;;;19.45;;
41167;SDS011;26906;45.658;9.272;2022-11-14T10:27:05;25.00;;;20.23;;
41167;SDS011;26906;45.658;9.272;2022-11-14T10:30:02;24.08;;;19.90;;
41167;SDS011;26906;45.658;9.272;2022-11-14T10:38:58;27.15;;;20.92;;
41167;SDS011;26906;45.658;9.272;2022-11-14T10:41:54;22.42;;;19.90;;
41167;SDS011;26906;45.658;9.272;2022-11-14T10:44:49;25.00;;;21.00;;
41167;SDS011;26906;45.658;9.272;2022-11-14T10:47:40;25.60;;;21.33;;
41167;SDS011;26906;45.658;9.272;2022-11-14T10:50:44;27.38;;;22.08;;
41167;SDS011;26906;45.658;9.272;2022-11-14T10:53:50;25.08;;;21.17;;
41167;SDS011;26906;45.658;9.272;2022-11-14T10:56:45;25.80;;;22.15;;
41167;SDS011;26906;45.658;9.272;2022-11-14T10:59:31;29.63;;;22.42;;
41167;SDS011;26906;45.658;9.272;2022-11-14T11:02:15;19.85;;;17.00;;
41167;SDS011;26906;45.658;9.272;2022-11-14T11:07:56;19.90;;;17.27;;
41167;SDS011;26906;45.658;9.272;2022-11-14T11:11:01;18.00;;;15.40;;
41167;SDS011;26906;45.658;9.272;2022-11-14T11:14:04;20.30;;;16.70;;
41167;SDS011;26906;45.658;9.272;2022-11-14T11:16:49;17.48;;;15.55;;
41167;SDS011;26906;45.658;9.272;2022-11-14T11:19:50;18.85;;;15.68;;
41167;SDS011;26906;45.658;9.272;2022-11-14T11:28:13;17.65;;;15.45;;
41167;SDS011;26906;45.658;9.272;2022-11-14T11:31:06;18.48;;;16.58;;
41167;SDS011;26906;45.658;9.272;2022-11-14T11:33:51;18.25;;;15.30;;
41167;SDS011;26906;45.658;9.272;2022-11-14T11:36:38;16.92;;;14.90;;
41167;SDS011;26906;45.658;9.272;2022-11-14T11:39:29;16.10;;;12.70;;
41167;SDS011;26906;45.658;9.272;2022-11-14T11:42:19;20.27;;;12.73;;
41167;SDS011;26906;45.658;9.272;2022-11-14T11:45:15;20.08;;;14.38;;
41167;SDS011;26906;45.658;9.272;2022-11-14T11:48:22;16.85;;;14.73;;
41167;SDS011;26906;45.658;9.272;2022-11-14T11:51:10;15.82;;;14.10;;
41167;SDS011;26906;45.658;9.272;2022-11-14T11:54:03;15.35;;;12.98;;
41167;SDS011;26906;45.658;9.272;2022-11-14T11:57:02;19.15;;;14.15;;
41167;SDS011;26906;45.658;9.272;2022-11-14T11:59:54;18.42;;;14.32;;
41167;SDS011;26906;45.658;9.272;2022-11-14T12:02:58;16.92;;;14.43;;
41167;SDS011;26906;45.658;9.272;2022-11-14T12:11:52;15.82;;;13.65;;
41167;SDS011;26906;45.658;9.272;2022-11-14T12:21:07;16.85;;;13.38;;
41167;SDS011;26906;45.658;9.272;2022-11-14T12:24:03;15.48;;;12.55;;
41167;SDS011;26906;45.658;9.272;2022-11-14T12:30:13;13.90;;;10.80;;
41167;SDS011;26906;45.658;9.272;2022-11-14T12:33:08;15.63;;;12.70;;
41167;SDS011;26906;45.658;9.272;2022-11-14T12:35:56;17.63;;;13.40;;
41167;SDS011;26906;45.658;9.272;2022-11-14T12:38:44;16.25;;;13.27;;
41167;SDS011;26906;45.658;9.272;2022-11-14T12:41:33;21.92;;;15.02;;
41167;SDS011;26906;45.658;9.272;2022-11-14T12:47:13;13.93;;;12.45;;
41167;SDS011;26906;45.658;9.272;2022-11-14T12:50:00;14.63;;;12.48;;
41167;SDS011;26906;45.658;9.272;2022-11-14T12:52:50;16.27;;;13.65;;
41167;SDS011;26906;45.658;9.272;2022-11-14T13:08:06;15.15;;;13.45;;
41167;SDS011;26906;45.658;9.272;2022-11-14T13:11:48;14.52;;;12.63;;
41167;SDS011;26906;45.658;9.272;2022-11-14T13:14:56;18.77;;;14.63;;
41167;SDS011;26906;45.658;9.272;2022-11-14T13:18:02;18.60;;;13.98;;
41167;SDS011;26906;45.658;9.272;2022-11-14T13:21:26;20.38;;;15.13;;
41167;SDS011;26906;45.658;9.272;2022-11-14T13:27:46;20.83;;;16.23;;
41167;SDS011;26906;45.658;9.272;2022-11-14T13:31:03;18.25;;;15.88;;
41167;SDS011;26906;45.658;9.272;2022-11-14T13:33:51;19.52;;;17.48;;
41167;SDS011;26906;45.658;9.272;2022-11-14T13:36:48;21.83;;;15.85;;
41167;SDS011;26906;45.658;9.272;2022-11-14T13:39:57;17.80;;;15.55;;
41167;SDS011;26906;45.658;9.272;2022-11-14T13:45:45;21.30;;;15.98;;
41167;SDS011;26906;45.658;9.272;2022-11-14T13:51:53;23.08;;;16.13;;
41167;SDS011;26906;45.658;9.272;2022-11-14T13:54:43;21.08;;;16.02;;
41167;SDS011;26906;45.658;9.272;2022-11-14T13:57:40;20.15;;;15.40;;
41167;SDS011;26906;45.658;9.272;2022-11-14T14:00:53;20.60;;;15.93;;
41167;SDS011;26906;45.658;9.272;2022-11-14T14:06:49;18.83;;;14.57;;
41167;SDS011;26906;45.658;9.272;2022-11-14T14:09:40;20.00;;;14.57;;
41167;SDS011;26906;45.658;9.272;2022-11-14T14:13:08;18.65;;;14.80;;
41167;SDS011;26906;45.658;9.272;2022-11-14T14:16:03;18.42;;;14.70;;
41167;SDS011;26906;45.658;9.272;2022-11-14T14:30:59;17.70;;;13.85;;
41167;SDS011;26906;45.658;9.272;2022-11-14T14:34:24;14.60;;;11.90;;
41167;SDS011;26906;45.658;9.272;2022-11-14T14:37:15;17.73;;;11.63;;
41167;SDS011;26906;45.658;9.272;2022-11-14T14:40:01;14.20;;;11.27;;
41167;SDS011;26906;45.658;9.272;2022-11-14T14:42:47;13.05;;;11.10;;
41167;SDS011;26906;45.658;9.272;2022-11-14T14:48:30;13.27;;;10.18;;
41167;SDS011;26906;45.658;9.272;2022-11-14T14:51:28;14.95;;;11.00;;
41167;SDS011;26906;45.658;9.272;2022-11-14T14:54:17;16.25;;;10.57;;
41167;SDS011;26906;45.658;9.272;2022-11-14T14:57:14;13.05;;;9.98;;
41167;SDS011;26906;45.658;9.272;2022-11-14T15:00:05;15.20;;;10.35;;
41167;SDS011;26906;45.658;9.272;2022-11-14T15:02:59;15.93;;;10.95;;
41167;SDS011;26906;45.658;9.272;2022-11-14T15:05:43;15.45;;;9.85;;
41167;SDS011;26906;45.658;9.272;2022-11-14T15:11:13;13.18;;;10.02;;
41167;SDS011;26906;45.658;9.272;2022-11-14T15:13:57;25.67;;;11.90;;
41167;SDS011;26906;45.658;9.272;2022-11-14T15:16:43;15.68;;;11.00;;
41167;SDS011;26906;45.658;9.272;2022-11-14T15:19:39;19.35;;;11.68;;
41167;SDS011;26906;45.658;9.272;2022-11-14T15:22:26;17.85;;;12.18;;
41167;SDS011;26906;45.658;9.272;2022-11-14T15:27:56;15.13;;;11.32;;
41167;SDS011;26906;45.658;9.272;2022-11-14T15:30:54;17.27;;;9.93;;
41167;SDS011;26906;45.658;9.272;2022-11-14T15:33:40;13.68;;;11.45;;
41167;SDS011;26906;45.658;9.272;2022-11-14T15:36:24;14.65;;;11.10;;
41167;SDS011;26906;45.658;9.272;2022-11-14T15:39:21;15.32;;;11.45;;
41167;SDS011;26906;45.658;9.272;2022-11-14T15:42:13;17.58;;;11.90;;
41167;SDS011;26906;45.658;9.272;2022-11-14T15:45:23;26.00;;;13.75;;
41167;SDS011;26906;45.658;9.272;2022-11-14T15:48:13;23.25;;;14.00;;
41167;SDS011;26906;45.658;9.272;2022-11-14T15:51:00;21.33;;;13.25;;
41167;SDS011;26906;45.658;9.272;2022-11-14T15:53:45;21.42;;;14.07;;
41167;SDS011;26906;45.658;9.272;2022-11-14T15:56:30;17.75;;;12.25;;
41167;SDS011;26906;45.658;9.272;2022-11-14T16:02:02;22.13;;;14.25;;
41167;SDS011;26906;45.658;9.272;2022-11-14T16:05:04;19.42;;;14.25;;
41167;SDS011;26906;45.658;9.272;2022-11-14T16:07:49;20.60;;;13.30;;
41167;SDS011;26906;45.658;9.272;2022-11-14T16:13:17;22.17;;;15.65;;
41167;SDS011;26906;45.658;9.272;2022-11-14T16:16:01;21.20;;;14.90;;
41167;SDS011;26906;45.658;9.272;2022-11-14T16:18:45;26.60;;;15.40;;
41167;SDS011;26906;45.658;9.272;2022-11-14T16:21:29;29.52;;;18.10;;
41167;SDS011;26906;45.658;9.272;2022-11-14T16:24:14;23.15;;;16.67;;
41167;SDS011;26906;45.658;9.272;2022-11-14T16:27:00;21.70;;;15.38;;
41167;SDS011;26906;45.658;9.272;2022-11-14T16:29:45;17.75;;;14.23;;
41167;SDS011;26906;45.658;9.272;2022-11-14T16:32:29;18.75;;;13.38;;
41167;SDS011;26906;45.658;9.272;2022-11-14T16:35:17;21.27;;;13.50;;
41167;SDS011;26906;45.658;9.272;2022-11-14T16:38:03;25.45;;;15.45;;
41167;SDS011;26906;45.658;9.272;2022-11-14T16:40:48;20.83;;;15.02;;
41167;SDS011;26906;45.658;9.272;2022-11-14T16:46:16;18.63;;;14.02;;
41167;SDS011;26906;45.658;9.272;2022-11-14T16:49:00;20.60;;;14.57;;
41167;SDS011;26906;45.658;9.272;2022-11-14T16:51:48;21.58;;;14.32;;
41167;SDS011;26906;45.658;9.272;2022-11-14T16:54:38;23.23;;;14.55;;
41167;SDS011;26906;45.658;9.272;2022-11-14T16:57:22;21.30;;;15.13;;
41167;SDS011;26906;45.658;9.272;2022-11-14T17:00:07;22.80;;;16.23;;
41167;SDS011;26906;45.658;9.272;2022-11-14T17:02:54;23.50;;;14.68;;
41167;SDS011;26906;45.658;9.272;2022-11-14T17:08:29;23.25;;;16.05;;
41167;SDS011;26906;45.658;9.272;2022-11-14T17:11:13;28.23;;;17.92;;
41167;SDS011;26906;45.658;9.272;2022-11-14T17:13:57;23.73;;;17.23;;
41167;SDS011;26906;45.658;9.272;2022-11-14T17:16:41;22.35;;;15.38;;
41167;SDS011;26906;45.658;9.272;2022-11-14T17:19:30;20.92;;;15.93;;
41167;SDS011;26906;45.658;9.272;2022-11-14T17:22:35;26.08;;;17.65;;
41167;SDS011;26906;45.658;9.272;2022-11-14T17:25:23;24.23;;;17.23;;
41167;SDS011;26906;45.658;9.272;2022-11-14T17:28:13;27.15;;;17.33;;
41167;SDS011;26906;45.658;9.272;2022-11-14T17:35:51;29.83;;;18.88;;
41167;SDS011;26906;45.658;9.272;2022-11-14T17:38:36;39.08;;;26.85;;
41167;SDS011;26906;45.658;9.272;2022-11-14T17:41:21;56.92;;;35.20;;
41167;SDS011;26906;45.658;9.272;2022-11-14T17:44:05;38.75;;;27.00;;
41167;SDS011;26906;45.658;9.272;2022-11-14T17:46:50;42.60;;;29.52;;
41167;SDS011;26906;45.658;9.272;2022-11-14T17:49:34;37.25;;;27.23;;
41167;SDS011;26906;45.658;9.272;2022-11-14T17:52:18;35.85;;;23.83;;
41167;SDS011;26906;45.658;9.272;2022-11-14T17:55:03;37.65;;;26.45;;
41167;SDS011;26906;45.658;9.272;2022-11-14T17:57:47;29.88;;;22.20;;
41167;SDS011;26906;45.658;9.272;2022-11-14T18:00:32;43.45;;;28.50;;
41167;SDS011;26906;45.658;9.272;2022-11-14T18:03:17;32.47;;;23.25;;
41167;SDS011;26906;45.658;9.272;2022-11-14T18:06:08;34.72;;;24.13;;
41167;SDS011;26906;45.658;9.272;2022-11-14T18:08:53;31.02;;;22.92;;
41167;SDS011;26906;45.658;9.272;2022-11-14T18:11:38;33.47;;;24.80;;
41167;SDS011;26906;45.658;9.272;2022-11-14T18:14:22;36.97;;;27.60;;
41167;SDS011;26906;45.658;9.272;2022-11-14T18:17:07;30.50;;;23.77;;
41167;SDS011;26906;45.658;9.272;2022-11-14T18:19:51;33.28;;;22.58;;
41167;SDS011;26906;45.658;9.272;2022-11-14T18:22:36;27.55;;;21.50;;
41167;SDS011;26906;45.658;9.272;2022-11-14T18:25:20;33.42;;;24.52;;
41167;SDS011;26906;45.658;9.272;2022-11-14T18:28:05;34.47;;;25.33;;
41167;SDS011;26906;45.658;9.272;2022-11-14T18:30:52;34.38;;;25.23;;
41167;SDS011;26906;45.658;9.272;2022-11-14T18:33:39;28.23;;;21.65;;
41167;SDS011;26906;45.658;9.272;2022-11-14T18:36:24;26.13;;;21.05;;
41167;SDS011;26906;45.658;9.272;2022-11-14T18:41:52;25.65;;;19.13;;
41167;SDS011;26906;45.658;9.272;2022-11-14T18:44:36;31.38;;;22.55;;
41167;SDS011;26906;45.658;9.272;2022-11-14T18:47:24;31.90;;;22.00;;
41167;SDS011;26906;45.658;9.272;2022-11-14T18:52:52;37.33;;;24.70;;
41167;SDS011;26906;45.658;9.272;2022-11-14T18:55:38;50.10;;;30.08;;
41167;SDS011;26906;45.658;9.272;2022-11-14T18:58:23;47.72;;;31.55;;
41167;SDS011;26906;45.658;9.272;2022-11-14T19:01:12;40.95;;;29.77;;
41167;SDS011;26906;45.658;9.272;2022-11-14T19:04:08;37.53;;;26.92;;
41167;SDS011;26906;45.658;9.272;2022-11-14T19:06:57;38.75;;;28.35;;
41167;SDS011;26906;45.658;9.272;2022-11-14T19:09:41;33.85;;;26.52;;
41167;SDS011;26906;45.658;9.272;2022-11-14T19:12:27;39.38;;;29.20;;
41167;SDS011;26906;45.658;9.272;2022-11-14T19:15:11;49.78;;;33.22;;
41167;SDS011;26906;45.658;9.272;2022-11-14T19:17:56;57.60;;;39.13;;
41167;SDS011;26906;45.658;9.272;2022-11-14T19:20:40;44.90;;;33.58;;
41167;SDS011;26906;45.658;9.272;2022-11-14T19:23:25;48.45;;;33.00;;
41167;SDS011;26906;45.658;9.272;2022-11-14T19:26:09;46.03;;;33.28;;
41167;SDS011;26906;45.658;9.272;2022-11-14T19:28:54;43.40;;;33.42;;
41167;SDS011;26906;45.658;9.272;2022-11-14T19:31:40;36.35;;;28.05;;
41167;SDS011;26906;45.658;9.272;2022-11-14T19:34:25;30.83;;;24.77;;
41167;SDS011;26906;45.658;9.272;2022-11-14T19:37:16;32.70;;;26.23;;
41167;SDS011;26906;45.658;9.272;2022-11-14T19:40:00;37.42;;;27.23;;
41167;SDS011;26906;45.658;9.272;2022-11-14T19:42:46;37.22;;;28.88;;
41167;SDS011;26906;45.658;9.272;2022-11-14T19:45:32;43.90;;;30.77;;
41167;SDS011;26906;45.658;9.272;2022-11-14T19:48:18;60.50;;;41.33;;
41167;SDS011;26906;45.658;9.272;2022-11-14T19:51:04;37.40;;;29.70;;
41167;SDS011;26906;45.658;9.272;2022-11-14T19:53:49;46.72;;;33.38;;
41167;SDS011;26906;45.658;9.272;2022-11-14T19:56:36;46.92;;;31.60;;
41167;SDS011;26906;45.658;9.272;2022-11-14T19:59:20;43.17;;;33.10;;
41167;SDS011;26906;45.658;9.272;2022-11-14T20:02:05;40.28;;;30.80;;
41167;SDS011;26906;45.658;9.272;2022-11-14T20:04:51;38.55;;;31.90;;
41167;SDS011;26906;45.658;9.272;2022-11-14T20:07:35;44.45;;;34.15;;
41167;SDS011;26906;45.658;9.272;2022-11-14T20:10:20;41.38;;;32.67;;
41167;SDS011;26906;45.658;9.272;2022-11-14T20:13:04;37.17;;;28.02;;
41167;SDS011;26906;45.658;9.272;2022-11-14T20:15:48;33.70;;;23.73;;
41167;SDS011;26906;45.658;9.272;2022-11-14T20:18:33;33.55;;;25.77;;
41167;SDS011;26906;45.658;9.272;2022-11-14T20:21:18;37.10;;;27.73;;
41167;SDS011;26906;45.658;9.272;2022-11-14T20:24:05;37.00;;;26.92;;
41167;SDS011;26906;45.658;9.272;2022-11-14T20:26:52;36.05;;;26.83;;
41167;SDS011;26906;45.658;9.272;2022-11-14T20:32:20;46.25;;;34.70;;
41167;SDS011;26906;45.658;9.272;2022-11-14T20:37:49;81.25;;;52.97;;
41167;SDS011;26906;45.658;9.272;2022-11-14T20:43:17;45.60;;;32.13;;
41167;SDS011;26906;45.658;9.272;2022-11-14T20:48:48;39.88;;;26.83;;
41167;SDS011;26906;45.658;9.272;2022-11-14T20:51:33;37.50;;;27.30;;
41167;SDS011;26906;45.658;9.272;2022-11-14T20:54:20;39.25;;;28.52;;
41167;SDS011;26906;45.658;9.272;2022-11-14T20:57:04;48.15;;;33.47;;
41167;SDS011;26906;45.658;9.272;2022-11-14T20:59:49;51.05;;;35.95;;
41167;SDS011;26906;45.658;9.272;2022-11-14T21:02:33;51.35;;;37.33;;
41167;SDS011;26906;45.658;9.272;2022-11-14T21:05:18;62.25;;;48.40;;
41167;SDS011;26906;45.658;9.272;2022-11-14T21:08:02;59.78;;;43.25;;
41167;SDS011;26906;45.658;9.272;2022-11-14T21:10:48;50.13;;;36.65;;
